createdAt,value
2022-08-17T00:00:06.923Z,0.00
2022-08-17T00:01:06.961Z,0.00
2022-08-17T00:02:25.155Z,0.00
2022-08-17T00:03:07.914Z,0.00
2022-08-17T00:04:10.733Z,0.00
2022-08-17T00:05:07.931Z,0.00
2022-08-17T00:06:06.891Z,0.00
2022-08-17T00:07:06.901Z,0.00
2022-08-17T00:08:06.877Z,0.00
2022-08-17T00:09:06.870Z,0.00
2022-08-17T00:10:06.893Z,0.00
2022-08-17T00:11:06.884Z,0.00
2022-08-17T00:12:43.237Z,0.00
2022-08-17T00:13:07.866Z,0.00
2022-08-17T00:14:06.844Z,0.00
2022-08-17T00:15:10.314Z,0.00
2022-08-17T00:16:06.849Z,0.00
2022-08-17T00:17:06.831Z,0.00
2022-08-17T00:19:01.941Z,0.00
2022-08-17T00:19:08.868Z,0.00
2022-08-17T00:20:07.821Z,0.00
2022-08-17T00:21:10.374Z,0.00
2022-08-17T00:22:34.207Z,0.00
2022-08-17T00:23:07.803Z,0.00
2022-08-17T00:24:06.805Z,0.00
2022-08-17T00:25:06.762Z,0.00
2022-08-17T00:26:06.786Z,0.00
2022-08-17T00:27:06.887Z,0.00
2022-08-17T00:28:06.759Z,0.00
2022-08-17T00:29:06.772Z,0.00
2022-08-17T00:30:06.782Z,0.00
2022-08-17T00:31:06.743Z,0.00
2022-08-17T00:33:16.005Z,0.00
2022-08-17T00:33:23.430Z,0.00
2022-08-17T00:34:07.794Z,0.00
2022-08-17T00:35:06.723Z,0.00
2022-08-17T00:36:06.727Z,0.00
2022-08-17T00:37:07.004Z,0.00
2022-08-17T00:38:06.711Z,0.00
2022-08-17T00:39:06.873Z,0.00
2022-08-17T00:40:06.736Z,0.00
2022-08-17T00:41:06.695Z,0.00
2022-08-17T00:42:06.692Z,0.00
2022-08-17T00:43:06.713Z,0.00
2022-08-17T00:44:06.676Z,0.00
2022-08-17T00:45:06.656Z,0.00
2022-08-17T00:46:06.732Z,0.00
2022-08-17T00:47:06.666Z,0.00
2022-08-17T00:48:06.687Z,0.00
2022-08-17T00:49:06.654Z,0.00
2022-08-17T00:50:06.649Z,0.00
2022-08-17T00:51:06.647Z,0.00
2022-08-17T00:52:10.880Z,0.00
2022-08-17T00:53:06.638Z,0.00
2022-08-17T00:54:06.632Z,0.00
2022-08-17T00:55:06.614Z,0.00
2022-08-17T00:56:06.612Z,0.00
2022-08-17T00:57:06.590Z,0.00
2022-08-17T00:58:06.598Z,0.00
2022-08-17T00:59:06.635Z,0.00
2022-08-17T01:00:06.586Z,0.00
2022-08-17T01:01:06.615Z,0.00
2022-08-17T01:02:06.587Z,0.00
2022-08-17T01:03:06.558Z,0.00
2022-08-17T01:04:06.565Z,0.00
2022-08-17T01:05:06.658Z,0.00
2022-08-17T01:06:06.559Z,0.00
2022-08-17T01:07:06.562Z,0.00
2022-08-17T01:08:06.539Z,0.00
2022-08-17T01:09:06.555Z,0.00
2022-08-17T01:10:06.583Z,0.00
2022-08-17T01:11:06.528Z,0.00
2022-08-17T01:12:06.532Z,0.00
2022-08-17T01:13:06.520Z,0.00
2022-08-17T01:14:06.507Z,0.00
2022-08-17T01:15:06.492Z,0.00
2022-08-17T01:16:06.590Z,0.00
2022-08-17T01:17:06.474Z,0.00
2022-08-17T01:18:06.498Z,0.00
2022-08-17T01:19:06.475Z,0.00
2022-08-17T01:20:06.472Z,0.00
2022-08-17T01:21:06.575Z,0.00
2022-08-17T01:22:06.471Z,0.00
2022-08-17T01:23:06.466Z,0.00
2022-08-17T01:24:06.443Z,0.00
2022-08-17T01:25:06.446Z,0.00
2022-08-17T01:26:06.435Z,0.00
2022-08-17T01:27:10.533Z,0.00
2022-08-17T01:28:06.442Z,0.00
2022-08-17T01:29:06.439Z,0.00
2022-08-17T01:30:06.426Z,0.00
2022-08-17T01:31:07.415Z,0.00
2022-08-17T01:32:06.420Z,0.00
2022-08-17T01:33:06.413Z,0.00
2022-08-17T01:34:06.401Z,0.00
2022-08-17T01:35:06.387Z,0.00
2022-08-17T01:36:06.384Z,0.00
2022-08-17T01:37:06.378Z,0.00
2022-08-17T01:38:06.408Z,0.00
2022-08-17T01:39:06.380Z,0.00
2022-08-17T01:40:06.460Z,0.00
2022-08-17T01:41:06.358Z,0.00
2022-08-17T01:42:06.372Z,0.00
2022-08-17T01:43:06.371Z,0.00
2022-08-17T01:44:06.352Z,0.00
2022-08-17T01:45:06.352Z,0.00
2022-08-17T01:46:06.327Z,0.00
2022-08-17T01:47:06.336Z,0.00
2022-08-17T01:48:06.344Z,0.00
2022-08-17T01:49:06.317Z,0.00
2022-08-17T01:50:06.305Z,0.00
2022-08-17T01:51:07.314Z,0.00
2022-08-17T01:52:06.315Z,0.00
2022-08-17T01:53:06.295Z,0.00
2022-08-17T01:54:06.296Z,0.00
2022-08-17T01:55:06.296Z,0.00
2022-08-17T01:56:06.263Z,0.00
2022-08-17T01:57:06.264Z,0.00
2022-08-17T01:58:08.128Z,0.00
2022-08-17T01:59:06.288Z,0.00
2022-08-17T02:00:06.352Z,0.00
2022-08-17T02:01:06.298Z,0.00
2022-08-17T02:02:06.245Z,0.00
2022-08-17T02:03:06.260Z,0.00
2022-08-17T02:04:06.238Z,0.00
2022-08-17T02:05:06.221Z,0.00
2022-08-17T02:06:06.218Z,0.00
2022-08-17T02:07:06.209Z,0.00
2022-08-17T02:08:06.244Z,0.00
2022-08-17T02:09:06.201Z,0.00
2022-08-17T02:10:06.195Z,0.00
2022-08-17T02:11:06.191Z,0.00
2022-08-17T02:12:38.986Z,0.00
2022-08-17T02:13:07.213Z,0.00
2022-08-17T02:14:06.190Z,0.00
2022-08-17T02:15:06.174Z,0.00
2022-08-17T02:16:06.160Z,0.00
2022-08-17T02:17:06.156Z,0.00
2022-08-17T02:18:06.175Z,0.00
2022-08-17T02:19:06.183Z,0.00
2022-08-17T02:20:06.163Z,0.00
2022-08-17T02:21:06.120Z,0.00
2022-08-17T02:22:06.125Z,0.00
2022-08-17T02:23:06.143Z,0.00
2022-08-17T02:24:06.130Z,0.00
2022-08-17T02:25:07.101Z,0.00
2022-08-17T02:26:06.101Z,0.00
2022-08-17T02:27:06.104Z,0.00
2022-08-17T02:28:06.087Z,0.00
2022-08-17T02:29:06.066Z,0.00
2022-08-17T02:30:06.095Z,0.00
2022-08-17T02:31:07.081Z,0.00
2022-08-17T02:32:06.077Z,0.00
2022-08-17T02:33:06.249Z,0.00
2022-08-17T02:34:06.055Z,0.00
2022-08-17T02:35:06.172Z,0.00
2022-08-17T02:36:06.056Z,0.00
2022-08-17T02:37:06.047Z,0.00
2022-08-17T02:38:06.033Z,0.00
2022-08-17T02:39:06.027Z,0.00
2022-08-17T02:40:06.125Z,0.00
2022-08-17T02:41:06.038Z,0.00
2022-08-17T02:42:06.011Z,0.00
2022-08-17T02:43:06.016Z,0.00
2022-08-17T02:44:06.031Z,0.00
2022-08-17T02:45:05.993Z,0.00
2022-08-17T02:46:06.126Z,0.00
2022-08-17T02:47:05.968Z,0.00
2022-08-17T02:48:05.984Z,0.00
2022-08-17T02:49:05.980Z,0.00
2022-08-17T02:50:05.963Z,0.00
2022-08-17T02:51:05.973Z,0.00
2022-08-17T02:52:05.996Z,0.00
2022-08-17T02:53:06.019Z,0.00
2022-08-17T02:54:41.442Z,0.00
2022-08-17T02:55:06.935Z,0.00
2022-08-17T02:56:05.931Z,0.00
2022-08-17T02:57:05.970Z,0.00
2022-08-17T02:58:05.928Z,0.00
2022-08-17T02:59:05.904Z,0.00
2022-08-17T03:00:05.918Z,0.00
2022-08-17T03:01:05.927Z,0.00
2022-08-17T03:02:05.948Z,0.00
2022-08-17T03:03:05.937Z,0.00
2022-08-17T03:04:05.883Z,0.00
2022-08-17T03:05:05.888Z,0.00
2022-08-17T03:06:05.879Z,0.00
2022-08-17T03:07:05.871Z,0.00
2022-08-17T03:08:05.900Z,0.00
2022-08-17T03:09:05.865Z,0.00
2022-08-17T03:10:05.853Z,0.00
2022-08-17T03:11:05.842Z,0.00
2022-08-17T03:12:05.855Z,0.00
2022-08-17T03:13:05.875Z,0.00
2022-08-17T03:14:05.867Z,0.00
2022-08-17T03:15:05.828Z,0.00
2022-08-17T03:16:05.836Z,0.00
2022-08-17T03:17:05.832Z,0.00
2022-08-17T03:18:05.810Z,0.00
2022-08-17T03:19:06.035Z,0.00
2022-08-17T03:20:05.812Z,0.00
2022-08-17T03:21:05.802Z,0.00
2022-08-17T03:22:36.504Z,0.00
2022-08-17T03:23:06.790Z,0.00
2022-08-17T03:24:08.703Z,0.00
2022-08-17T03:25:05.824Z,0.00
2022-08-17T03:26:05.769Z,0.00
2022-08-17T03:27:05.761Z,0.00
2022-08-17T03:28:05.751Z,0.00
2022-08-17T03:29:05.746Z,0.00
2022-08-17T03:30:05.852Z,0.00
2022-08-17T03:31:05.734Z,0.00
2022-08-17T03:32:05.735Z,0.00
2022-08-17T03:33:05.719Z,0.00
2022-08-17T03:34:05.717Z,0.00
2022-08-17T03:35:05.707Z,0.00
2022-08-17T03:36:05.720Z,0.00
2022-08-17T03:37:05.686Z,0.00
2022-08-17T03:38:05.694Z,0.00
2022-08-17T03:39:05.697Z,0.00
2022-08-17T03:40:05.787Z,0.00
2022-08-17T03:41:05.707Z,0.00
2022-08-17T03:42:05.686Z,0.00
2022-08-17T03:43:05.671Z,0.00
2022-08-17T03:44:05.668Z,0.00
2022-08-17T03:45:05.643Z,0.00
2022-08-17T03:46:05.846Z,0.00
2022-08-17T03:47:06.766Z,0.00
2022-08-17T03:48:05.667Z,0.00
2022-08-17T03:49:05.636Z,0.00
2022-08-17T03:50:10.338Z,0.00
2022-08-17T03:51:05.632Z,0.00
2022-08-17T03:52:05.646Z,0.00
2022-08-17T03:53:05.613Z,0.00
2022-08-17T03:54:05.606Z,0.00
2022-08-17T03:55:05.606Z,0.00
2022-08-17T03:56:05.612Z,0.00
2022-08-17T03:57:05.603Z,0.00
2022-08-17T03:58:05.659Z,0.00
2022-08-17T03:59:05.578Z,0.00
2022-08-17T04:00:05.583Z,0.00
2022-08-17T04:01:05.619Z,0.00
2022-08-17T04:02:05.615Z,0.00
2022-08-17T04:03:05.595Z,5.62
2022-08-17T04:04:05.548Z,5.62
2022-08-17T04:05:05.560Z,5.62
2022-08-17T04:06:05.593Z,5.62
2022-08-17T04:07:05.562Z,5.62
2022-08-17T04:08:05.515Z,5.62
2022-08-17T04:09:05.588Z,5.62
2022-08-17T04:10:05.545Z,5.62
2022-08-17T04:11:05.515Z,5.62
2022-08-17T04:12:05.661Z,5.62
2022-08-17T04:13:05.501Z,5.62
2022-08-17T04:14:05.515Z,5.62
2022-08-17T04:15:06.507Z,5.62
2022-08-17T04:16:05.488Z,5.62
2022-08-17T04:17:05.500Z,11.25
2022-08-17T04:18:07.354Z,11.25
2022-08-17T04:19:05.474Z,11.25
2022-08-17T04:20:05.551Z,11.25
2022-08-17T04:21:05.458Z,11.25
2022-08-17T04:22:05.473Z,11.25
2022-08-17T04:23:05.457Z,16.88
2022-08-17T04:24:05.447Z,16.88
2022-08-17T04:25:05.562Z,16.88
2022-08-17T04:26:05.434Z,16.88
2022-08-17T04:27:05.444Z,22.50
2022-08-17T04:28:05.428Z,22.50
2022-08-17T04:29:06.429Z,22.50
2022-08-17T04:30:05.398Z,22.50
2022-08-17T04:31:05.506Z,22.50
2022-08-17T04:32:05.402Z,28.12
2022-08-17T04:33:07.285Z,28.12
2022-08-17T04:34:06.381Z,28.12
2022-08-17T04:35:05.399Z,28.12
2022-08-17T04:36:05.487Z,33.75
2022-08-17T04:37:05.397Z,33.75
2022-08-17T04:38:05.361Z,33.75
2022-08-17T04:39:05.427Z,39.38
2022-08-17T04:40:05.397Z,39.38
2022-08-17T04:41:05.359Z,39.38
2022-08-17T04:42:05.366Z,39.38
2022-08-17T04:43:05.359Z,45.00
2022-08-17T04:44:05.323Z,45.00
2022-08-17T04:45:05.334Z,50.62
2022-08-17T04:46:05.323Z,50.62
2022-08-17T04:47:05.316Z,56.25
2022-08-17T04:48:06.317Z,56.25
2022-08-17T04:49:05.328Z,61.88
2022-08-17T04:50:05.293Z,61.88
2022-08-17T04:51:05.304Z,67.50
2022-08-17T04:52:05.287Z,73.12
2022-08-17T04:53:05.317Z,73.12
2022-08-17T04:54:05.293Z,78.75
2022-08-17T04:55:05.261Z,84.38
2022-08-17T04:56:05.258Z,90.00
2022-08-17T04:57:05.258Z,90.00
2022-08-17T04:58:05.292Z,90.00
2022-08-17T04:59:05.276Z,95.62
2022-08-17T05:00:05.223Z,101.25
2022-08-17T05:01:05.293Z,101.25
2022-08-17T05:02:05.246Z,106.88
2022-08-17T05:03:05.237Z,106.88
2022-08-17T05:04:26.893Z,106.88
2022-08-17T05:05:06.214Z,112.50
2022-08-17T05:06:05.222Z,112.50
2022-08-17T05:07:05.209Z,112.50
2022-08-17T05:08:05.246Z,118.12
2022-08-17T05:09:05.265Z,118.12
2022-08-17T05:10:05.194Z,118.12
2022-08-17T05:11:05.180Z,118.12
2022-08-17T05:12:05.192Z,118.12
2022-08-17T05:13:05.263Z,118.12
2022-08-17T05:14:05.180Z,123.75
2022-08-17T05:15:05.184Z,118.12
2022-08-17T05:16:05.156Z,123.75
2022-08-17T05:17:07.185Z,129.38
2022-08-17T05:18:05.150Z,129.38
2022-08-17T05:19:05.150Z,135.00
2022-08-17T05:20:05.242Z,135.00
2022-08-17T05:21:05.131Z,140.62
2022-08-17T05:22:05.119Z,140.62
2022-08-17T05:23:05.121Z,146.25
2022-08-17T05:24:09.691Z,146.25
2022-08-17T05:25:06.128Z,151.88
2022-08-17T05:26:05.115Z,151.88
2022-08-17T05:27:05.115Z,151.88
2022-08-17T05:28:05.090Z,157.50
2022-08-17T05:29:05.081Z,157.50
2022-08-17T05:30:05.078Z,163.12
2022-08-17T05:31:05.179Z,151.88
2022-08-17T05:32:05.055Z,151.88
2022-08-17T05:33:05.094Z,157.50
2022-08-17T05:34:05.062Z,163.12
2022-08-17T05:35:05.732Z,168.75
2022-08-17T05:36:05.048Z,168.75
2022-08-17T05:37:05.045Z,168.75
2022-08-17T05:38:05.021Z,174.38
2022-08-17T05:39:06.033Z,168.75
2022-08-17T05:40:05.082Z,180.00
2022-08-17T05:41:05.027Z,241.88
2022-08-17T05:42:05.038Z,303.75
2022-08-17T05:43:05.000Z,292.50
2022-08-17T05:44:05.404Z,219.38
2022-08-17T05:45:05.001Z,196.88
2022-08-17T05:46:04.989Z,208.12
2022-08-17T05:47:05.101Z,196.88
2022-08-17T05:48:06.030Z,185.62
2022-08-17T05:49:04.975Z,191.25
2022-08-17T05:50:09.890Z,191.25
2022-08-17T05:51:04.980Z,191.25
2022-08-17T05:52:04.974Z,191.25
2022-08-17T05:53:05.223Z,191.25
2022-08-17T05:54:04.932Z,191.25
2022-08-17T05:55:04.941Z,191.25
2022-08-17T05:56:04.971Z,191.25
2022-08-17T05:57:04.934Z,185.62
2022-08-17T05:58:05.163Z,191.25
2022-08-17T05:59:04.950Z,191.25
2022-08-17T06:00:04.920Z,191.25
2022-08-17T06:01:04.968Z,191.25
2022-08-17T06:02:04.912Z,185.62
2022-08-17T06:03:04.903Z,180.00
2022-08-17T06:04:05.014Z,185.62
2022-08-17T06:05:04.891Z,185.62
2022-08-17T06:06:04.870Z,185.62
2022-08-17T06:07:04.871Z,180.00
2022-08-17T06:08:04.874Z,180.00
2022-08-17T06:09:04.984Z,185.62
2022-08-17T06:10:04.863Z,196.88
2022-08-17T06:11:04.838Z,191.25
2022-08-17T06:12:05.742Z,191.25
2022-08-17T06:13:04.885Z,191.25
2022-08-17T06:14:04.829Z,191.25
2022-08-17T06:15:04.945Z,191.25
2022-08-17T06:16:04.859Z,196.88
2022-08-17T06:17:05.842Z,196.88
2022-08-17T06:18:04.830Z,196.88
2022-08-17T06:19:04.818Z,196.88
2022-08-17T06:20:05.041Z,196.88
2022-08-17T06:21:04.795Z,196.88
2022-08-17T06:22:04.792Z,213.75
2022-08-17T06:23:04.799Z,230.62
2022-08-17T06:24:04.789Z,241.88
2022-08-17T06:25:04.801Z,326.25
2022-08-17T06:26:05.853Z,900.00
2022-08-17T06:27:04.772Z,1468.12
2022-08-17T06:28:04.754Z,1040.62
2022-08-17T06:29:04.763Z,961.88
2022-08-17T06:30:04.763Z,753.75
2022-08-17T06:31:04.779Z,1091.25
2022-08-17T06:32:04.727Z,1355.62
2022-08-17T06:33:04.744Z,894.38
2022-08-17T06:34:04.728Z,1091.25
2022-08-17T06:35:04.742Z,1563.75
2022-08-17T06:36:09.244Z,1434.38
2022-08-17T06:37:04.830Z,973.12
2022-08-17T06:38:04.708Z,646.88
2022-08-17T06:39:04.709Z,405.00
2022-08-17T06:40:04.763Z,286.88
2022-08-17T06:41:04.709Z,427.50
2022-08-17T06:42:04.734Z,534.38
2022-08-17T06:43:06.523Z,781.88
2022-08-17T06:44:04.686Z,1299.38
2022-08-17T06:45:04.679Z,1496.25
2022-08-17T06:46:04.670Z,1535.62
2022-08-17T06:47:04.671Z,1563.75
2022-08-17T06:48:04.775Z,1653.75
2022-08-17T06:49:04.663Z,1659.38
2022-08-17T06:50:04.681Z,1648.12
2022-08-17T06:51:04.763Z,1693.12
2022-08-17T06:52:05.617Z,1771.88
2022-08-17T06:55:19.128Z,1867.50
2022-08-17T06:56:18.766Z,1991.25
2022-08-17T06:57:18.763Z,2075.62
2022-08-17T06:58:18.748Z,2075.62
2022-08-17T06:59:19.359Z,1957.50
2022-08-17T07:00:19.876Z,466.88
2022-08-17T07:01:20.027Z,416.25
2022-08-17T07:02:19.833Z,556.88
2022-08-17T07:03:20.803Z,489.38
2022-08-17T07:04:19.839Z,630.00
2022-08-17T07:05:19.825Z,714.38
2022-08-17T07:06:20.805Z,528.75
2022-08-17T07:07:19.815Z,630.00
2022-08-17T07:08:19.846Z,624.38
2022-08-17T07:09:19.802Z,1518.75
2022-08-17T07:10:19.807Z,821.25
2022-08-17T07:11:19.820Z,714.38
2022-08-17T07:12:19.789Z,1940.62
2022-08-17T07:13:19.782Z,2143.12
2022-08-17T07:14:19.776Z,1518.75
2022-08-17T07:15:19.777Z,1980.00
2022-08-17T07:16:19.804Z,1794.38
2022-08-17T07:17:19.864Z,1659.38
2022-08-17T07:18:19.732Z,1597.50
2022-08-17T07:19:19.785Z,1569.38
2022-08-17T07:20:19.741Z,1552.50
2022-08-17T07:21:22.968Z,1535.62
2022-08-17T07:22:20.769Z,1530.00
2022-08-17T07:23:19.746Z,1524.38
2022-08-17T07:24:29.457Z,1524.38
2022-08-17T07:25:20.881Z,1524.38
2022-08-17T07:26:19.718Z,1535.62
2022-08-17T07:27:19.736Z,1541.25
2022-08-17T07:28:19.723Z,1552.50
2022-08-17T07:29:19.697Z,1569.38
2022-08-17T07:30:19.695Z,1591.88
2022-08-17T07:31:19.692Z,1620.00
2022-08-17T07:32:19.717Z,1653.75
2022-08-17T07:33:19.704Z,1755.00
2022-08-17T07:34:19.689Z,1985.62
2022-08-17T07:35:20.022Z,2109.38
2022-08-17T07:36:19.683Z,2070.00
2022-08-17T07:37:19.692Z,2295.00
2022-08-17T07:38:25.701Z,2295.00
2022-08-17T07:39:19.657Z,2379.38
2022-08-17T07:40:19.703Z,2570.62
2022-08-17T07:41:19.647Z,2356.88
2022-08-17T07:42:19.642Z,2660.62
2022-08-17T07:43:23.144Z,2548.12
2022-08-17T07:44:19.619Z,2593.12
2022-08-17T07:45:19.629Z,3071.25
2022-08-17T07:46:19.615Z,2626.88
2022-08-17T07:47:19.634Z,2868.75
2022-08-17T07:48:19.624Z,2773.12
2022-08-17T07:49:19.675Z,2806.88
2022-08-17T07:50:22.698Z,2986.88
2022-08-17T07:51:20.614Z,3026.25
2022-08-17T07:52:24.806Z,3155.62
2022-08-17T07:53:19.585Z,2970.00
2022-08-17T07:54:19.582Z,2801.25
2022-08-17T07:55:19.616Z,2981.25
2022-08-17T07:56:19.575Z,3076.88
2022-08-17T07:57:19.574Z,3116.25
2022-08-17T07:58:19.553Z,2761.88
2022-08-17T07:59:23.049Z,2143.12
2022-08-17T08:00:19.670Z,2688.75
2022-08-17T08:01:20.550Z,2919.38
2022-08-17T08:02:19.598Z,2655.00
2022-08-17T08:03:19.625Z,2610.00
2022-08-17T08:04:25.841Z,2469.38
2022-08-17T08:05:48.856Z,2328.75
2022-08-17T08:06:20.520Z,2671.88
2022-08-17T08:07:19.548Z,2621.25
2022-08-17T08:08:19.528Z,2581.88
2022-08-17T08:09:19.519Z,2418.75
2022-08-17T08:10:19.486Z,2806.88
2022-08-17T08:11:19.513Z,2981.25
2022-08-17T08:12:19.515Z,2750.62
2022-08-17T08:13:19.519Z,2503.12
2022-08-17T08:14:19.477Z,2075.62
2022-08-17T08:15:19.479Z,1873.12
2022-08-17T08:16:19.476Z,1687.50
2022-08-17T08:17:19.495Z,1788.75
2022-08-17T08:18:19.499Z,1738.12
2022-08-17T08:19:21.167Z,2188.12
2022-08-17T08:20:51.485Z,2328.75
2022-08-17T08:21:20.451Z,2424.38
2022-08-17T08:22:19.456Z,2722.50
2022-08-17T08:23:19.464Z,2784.38
2022-08-17T08:24:19.443Z,2621.25
2022-08-17T08:25:19.431Z,2508.75
2022-08-17T08:26:19.414Z,2536.88
2022-08-17T08:27:19.447Z,2846.25
2022-08-17T08:28:19.447Z,2840.62
2022-08-17T08:29:19.412Z,2795.62
2022-08-17T08:30:19.420Z,2750.62
2022-08-17T08:31:19.400Z,2874.38
2022-08-17T08:32:19.404Z,2700.00
2022-08-17T08:33:19.568Z,2115.00
2022-08-17T08:34:55.877Z,2874.38
2022-08-17T08:35:19.389Z,3318.75
2022-08-17T08:37:12.668Z,3369.38
2022-08-17T08:37:30.370Z,3324.38
2022-08-17T08:38:20.377Z,3206.25
2022-08-17T08:39:19.357Z,2182.50
2022-08-17T08:40:19.387Z,2953.12
2022-08-17T08:41:19.348Z,3211.88
2022-08-17T08:42:19.337Z,3515.62
2022-08-17T08:43:19.604Z,2587.50
2022-08-17T08:44:19.412Z,1681.88
2022-08-17T08:45:19.348Z,1923.75
2022-08-17T08:46:19.669Z,1856.25
2022-08-17T08:47:19.324Z,1580.62
2022-08-17T08:48:52.890Z,2610.00
2022-08-17T08:49:29.705Z,1968.75
2022-08-17T08:50:37.666Z,1029.38
2022-08-17T08:51:19.290Z,877.50
2022-08-17T08:52:19.285Z,933.75
2022-08-17T08:53:19.301Z,1209.38
2022-08-17T08:54:26.213Z,1586.25
2022-08-17T08:55:19.285Z,2525.62
2022-08-17T08:56:19.277Z,1181.25
2022-08-17T08:57:25.612Z,1203.75
2022-08-17T08:58:41.029Z,1170.00
2022-08-17T08:59:20.275Z,1625.62
2022-08-17T09:00:19.402Z,1063.12
2022-08-17T09:01:19.324Z,1018.12
2022-08-17T09:02:19.351Z,1074.38
2022-08-17T09:03:19.244Z,810.00
2022-08-17T09:04:24.542Z,781.88
2022-08-17T09:05:20.372Z,939.38
2022-08-17T09:06:37.889Z,1136.25
2022-08-17T09:07:20.246Z,742.50
2022-08-17T09:08:19.237Z,928.12
2022-08-17T09:09:19.223Z,658.12
2022-08-17T09:10:19.193Z,624.38
2022-08-17T09:11:19.244Z,573.75
2022-08-17T09:12:19.254Z,562.50
2022-08-17T09:13:19.210Z,562.50
2022-08-17T09:14:21.484Z,556.88
2022-08-17T09:15:19.209Z,556.88
2022-08-17T09:16:19.202Z,573.75
2022-08-17T09:17:19.220Z,601.88
2022-08-17T09:19:00.039Z,641.25
2022-08-17T09:19:21.155Z,691.88
2022-08-17T09:20:28.388Z,776.25
2022-08-17T09:21:20.345Z,855.00
2022-08-17T09:22:19.182Z,1670.62
2022-08-17T09:23:19.165Z,1305.00
2022-08-17T09:24:20.756Z,1389.38
2022-08-17T09:25:19.125Z,1068.75
2022-08-17T09:26:19.128Z,1091.25
2022-08-17T09:27:19.210Z,1136.25
2022-08-17T09:28:19.133Z,973.12
2022-08-17T09:29:19.113Z,1035.00
2022-08-17T09:30:19.116Z,1541.25
2022-08-17T09:31:19.109Z,3228.75
2022-08-17T09:32:19.212Z,2733.75
2022-08-17T09:33:19.226Z,2570.62
2022-08-17T09:34:19.108Z,2818.12
2022-08-17T09:35:19.140Z,2621.25
2022-08-17T09:36:19.091Z,2385.00
2022-08-17T09:37:19.092Z,2188.12
2022-08-17T09:38:19.204Z,1828.12
2022-08-17T09:39:19.075Z,1620.00
2022-08-17T09:40:19.260Z,1226.25
2022-08-17T09:41:19.086Z,1085.62
2022-08-17T09:42:19.103Z,922.50
2022-08-17T09:43:19.085Z,877.50
2022-08-17T09:44:23.280Z,821.25
2022-08-17T09:45:51.954Z,765.00
2022-08-17T09:46:19.008Z,759.38
2022-08-17T09:47:19.027Z,641.25
2022-08-17T09:48:19.016Z,607.50
2022-08-17T09:49:24.619Z,618.75
2022-08-17T09:50:19.004Z,618.75
2022-08-17T09:51:19.009Z,630.00
2022-08-17T09:52:19.016Z,641.25
2022-08-17T09:53:18.987Z,652.50
2022-08-17T09:54:38.160Z,669.38
2022-08-17T09:55:19.975Z,697.50
2022-08-17T09:56:18.964Z,731.25
2022-08-17T09:57:29.899Z,742.50
2022-08-17T09:58:19.953Z,748.12
2022-08-17T09:59:18.956Z,714.38
2022-08-17T10:00:19.001Z,708.75
2022-08-17T10:01:18.993Z,708.75
2022-08-17T10:02:18.924Z,725.62
2022-08-17T10:03:18.948Z,731.25
2022-08-17T10:04:20.342Z,703.12
2022-08-17T10:05:19.951Z,697.50
2022-08-17T10:06:22.101Z,703.12
2022-08-17T10:07:18.914Z,691.88
2022-08-17T10:08:21.838Z,669.38
2022-08-17T10:09:18.917Z,646.88
2022-08-17T10:10:18.923Z,624.38
2022-08-17T10:11:18.927Z,601.88
2022-08-17T10:12:18.909Z,601.88
2022-08-17T10:13:18.922Z,607.50
2022-08-17T10:14:36.584Z,663.75
2022-08-17T10:15:19.934Z,753.75
2022-08-17T10:16:18.881Z,815.62
2022-08-17T10:17:18.865Z,866.25
2022-08-17T10:18:18.874Z,787.50
2022-08-17T10:19:18.847Z,624.38
2022-08-17T10:20:18.863Z,495.00
2022-08-17T10:21:18.889Z,433.12
2022-08-17T10:22:35.244Z,382.50
2022-08-17T10:23:19.845Z,343.12
2022-08-17T10:24:18.830Z,320.62
2022-08-17T10:25:22.695Z,298.12
2022-08-17T10:26:18.846Z,281.25
2022-08-17T10:27:18.842Z,275.62
2022-08-17T10:28:19.859Z,270.00
2022-08-17T10:29:18.812Z,270.00
2022-08-17T10:30:18.811Z,270.00
2022-08-17T10:31:34.269Z,264.38
2022-08-17T10:32:20.853Z,264.38
2022-08-17T10:33:18.799Z,264.38
2022-08-17T10:34:18.784Z,270.00
2022-08-17T10:35:18.798Z,275.62
2022-08-17T10:36:18.787Z,281.25
2022-08-17T10:37:18.779Z,292.50
2022-08-17T10:38:18.779Z,303.75
2022-08-17T10:39:18.769Z,315.00
2022-08-17T10:40:18.773Z,337.50
2022-08-17T10:41:18.758Z,360.00
2022-08-17T10:42:32.391Z,376.88
2022-08-17T10:43:19.758Z,399.38
2022-08-17T10:44:37.210Z,393.75
2022-08-17T10:45:18.739Z,382.50
2022-08-17T10:46:31.297Z,365.62
2022-08-17T10:47:19.747Z,348.75
2022-08-17T10:48:18.710Z,331.88
2022-08-17T10:49:18.711Z,320.62
2022-08-17T10:50:18.717Z,309.38
2022-08-17T10:51:18.705Z,303.75
2022-08-17T10:52:18.697Z,292.50
2022-08-17T10:53:20.031Z,286.88
2022-08-17T10:54:19.682Z,281.25
2022-08-17T10:55:18.687Z,275.62
2022-08-17T10:56:18.683Z,258.75
2022-08-17T10:57:18.668Z,241.88
2022-08-17T10:58:18.793Z,230.62
2022-08-17T10:59:18.667Z,230.62
2022-08-17T11:00:18.663Z,225.00
2022-08-17T11:01:18.702Z,225.00
2022-08-17T11:02:18.641Z,225.00
2022-08-17T11:03:18.648Z,219.38
2022-08-17T11:04:18.704Z,219.38
2022-08-17T11:05:18.655Z,219.38
2022-08-17T11:06:18.615Z,208.12
2022-08-17T11:07:18.660Z,196.88
2022-08-17T11:08:18.628Z,191.25
2022-08-17T11:09:18.646Z,191.25
2022-08-17T11:10:18.598Z,191.25
2022-08-17T11:11:18.602Z,185.62
2022-08-17T11:12:18.597Z,185.62
2022-08-17T11:13:18.601Z,180.00
2022-08-17T11:14:18.585Z,174.38
2022-08-17T11:15:18.706Z,168.75
2022-08-17T11:16:18.577Z,163.12
2022-08-17T11:17:18.592Z,157.50
2022-08-17T11:18:18.556Z,151.88
2022-08-17T11:19:18.559Z,151.88
2022-08-17T11:20:18.601Z,151.88
2022-08-17T11:21:18.538Z,151.88
2022-08-17T11:22:18.551Z,151.88
2022-08-17T11:23:18.551Z,151.88
2022-08-17T11:24:18.535Z,151.88
2022-08-17T11:25:18.528Z,157.50
2022-08-17T11:26:18.551Z,157.50
2022-08-17T11:27:18.511Z,163.12
2022-08-17T11:28:18.505Z,168.75
2022-08-17T11:29:18.505Z,168.75
2022-08-17T11:30:18.501Z,174.38
2022-08-17T11:31:18.507Z,185.62
2022-08-17T11:32:18.487Z,196.88
2022-08-17T11:33:18.483Z,213.75
2022-08-17T11:34:18.493Z,230.62
2022-08-17T11:35:18.487Z,247.50
2022-08-17T11:36:18.468Z,270.00
2022-08-17T11:37:18.510Z,281.25
2022-08-17T11:38:18.456Z,303.75
2022-08-17T11:39:18.438Z,320.62
2022-08-17T11:40:18.521Z,331.88
2022-08-17T11:41:18.437Z,343.12
2022-08-17T11:42:18.470Z,354.38
2022-08-17T11:43:18.435Z,365.62
2022-08-17T11:44:18.418Z,382.50
2022-08-17T11:45:31.737Z,399.38
2022-08-17T11:46:18.421Z,421.88
2022-08-17T11:47:18.409Z,438.75
2022-08-17T11:48:27.635Z,450.00
2022-08-17T11:49:20.414Z,466.88
2022-08-17T11:50:18.403Z,483.75
2022-08-17T11:51:18.387Z,495.00
2022-08-17T11:52:18.404Z,517.50
2022-08-17T11:53:18.488Z,517.50
2022-08-17T11:54:34.770Z,517.50
2022-08-17T11:55:35.470Z,517.50
2022-08-17T11:56:18.370Z,506.25
2022-08-17T11:57:18.348Z,495.00
2022-08-17T11:58:18.349Z,478.12
2022-08-17T11:59:18.377Z,450.00
2022-08-17T12:00:18.347Z,427.50
2022-08-17T12:01:18.349Z,405.00
2022-08-17T12:02:18.337Z,388.12
2022-08-17T12:03:18.392Z,371.25
2022-08-17T12:04:18.512Z,354.38
2022-08-17T12:05:18.316Z,337.50
2022-08-17T12:06:18.321Z,331.88
2022-08-17T12:07:18.302Z,320.62
2022-08-17T12:08:18.311Z,309.38
2022-08-17T12:09:18.300Z,298.12
2022-08-17T12:10:18.399Z,286.88
2022-08-17T12:11:18.289Z,281.25
2022-08-17T12:12:18.287Z,270.00
2022-08-17T12:13:18.295Z,264.38
2022-08-17T12:14:22.446Z,258.75
2022-08-17T12:15:19.284Z,258.75
2022-08-17T12:16:18.254Z,258.75
2022-08-17T12:17:25.881Z,258.75
2022-08-17T12:18:19.240Z,258.75
2022-08-17T12:19:18.235Z,258.75
2022-08-17T12:20:18.246Z,247.50
2022-08-17T12:21:18.331Z,236.25
2022-08-17T12:22:19.258Z,225.00
2022-08-17T12:23:18.207Z,213.75
2022-08-17T12:24:18.217Z,208.12
2022-08-17T12:25:18.228Z,196.88
2022-08-17T12:26:18.223Z,185.62
2022-08-17T12:27:18.204Z,168.75
2022-08-17T12:28:20.095Z,157.50
2022-08-17T12:29:35.182Z,146.25
2022-08-17T12:30:19.299Z,129.38
2022-08-17T12:31:18.179Z,118.12
2022-08-17T12:32:18.182Z,106.88
2022-08-17T12:33:27.902Z,95.62
2022-08-17T12:34:18.170Z,90.00
2022-08-17T12:35:18.146Z,84.38
2022-08-17T12:36:18.267Z,84.38
2022-08-17T12:37:18.137Z,84.38
2022-08-17T12:38:32.263Z,78.75
2022-08-17T12:39:21.204Z,78.75
2022-08-17T12:40:18.120Z,84.38
2022-08-17T12:41:18.158Z,84.38
2022-08-17T12:42:18.126Z,90.00
2022-08-17T12:43:18.119Z,90.00